sensor_id;sensor_type;location;lat;lon;timestamp;P1;durP1;ratioP1;P2;durP2;ratioP2
21806;SDS011;11065;50.786;7.840;2022-08-01T00:00:06;3.33;;;2.80;;
21806;SDS011;11065;50.786;7.840;2022-08-01T00:02:39;5.73;;;2.83;;
21806;SDS011;11065;50.786;7.840;2022-08-01T00:05:07;4.37;;;3.10;;
21806;SDS011;11065;50.786;7.840;2022-08-01T00:07:35;4.00;;;2.90;;
21806;SDS011;11065;50.786;7.840;2022-08-01T00:10:06;3.37;;;3.00;;
21806;SDS011;11065;50.786;7.840;2022-08-01T00:12:34;4.83;;;2.77;;
21806;SDS011;11065;50.786;7.840;2022-08-01T00:15:02;4.90;;;2.77;;
21806;SDS011;11065;50.786;7.840;2022-08-01T00:17:30;4.57;;;3.00;;
21806;SDS011;11065;50.786;7.840;2022-08-01T00:19:57;3.70;;;2.70;;
21806;SDS011;11065;50.786;7.840;2022-08-01T00:22:24;4.37;;;2.73;;
21806;SDS011;11065;50.786;7.840;2022-08-01T00:24:51;4.67;;;2.40;;
21806;SDS011;11065;50.786;7.840;2022-08-01T00:27:18;3.13;;;2.30;;
21806;SDS011;11065;50.786;7.840;2022-08-01T00:29:45;3.77;;;2.67;;
21806;SDS011;11065;50.786;7.840;2022-08-01T00:32:32;3.33;;;2.40;;
21806;SDS011;11065;50.786;7.840;2022-08-01T00:34:59;4.47;;;2.33;;
21806;SDS011;11065;50.786;7.840;2022-08-01T00:37:26;3.83;;;2.20;;
21806;SDS011;11065;50.786;7.840;2022-08-01T00:39:53;2.33;;;1.83;;
21806;SDS011;11065;50.786;7.840;2022-08-01T00:42:20;3.47;;;2.20;;
21806;SDS011;11065;50.786;7.840;2022-08-01T00:44:47;3.10;;;2.03;;
21806;SDS011;11065;50.786;7.840;2022-08-01T00:47:15;3.27;;;1.63;;
21806;SDS011;11065;50.786;7.840;2022-08-01T00:49:42;4.27;;;2.20;;
21806;SDS011;11065;50.786;7.840;2022-08-01T00:52:09;2.60;;;1.80;;
21806;SDS011;11065;50.786;7.840;2022-08-01T00:54:36;3.57;;;1.70;;
21806;SDS011;11065;50.786;7.840;2022-08-01T00:57:03;4.77;;;1.83;;
21806;SDS011;11065;50.786;7.840;2022-08-01T00:59:36;2.40;;;1.83;;
21806;SDS011;11065;50.786;7.840;2022-08-01T01:02:06;2.60;;;1.40;;
21806;SDS011;11065;50.786;7.840;2022-08-01T01:04:41;4.80;;;1.53;;
21806;SDS011;11065;50.786;7.840;2022-08-01T01:12:38;4.40;;;1.93;;
21806;SDS011;11065;50.786;7.840;2022-08-01T01:15:30;2.30;;;1.60;;
21806;SDS011;11065;50.786;7.840;2022-08-01T01:18:03;4.17;;;1.80;;
21806;SDS011;11065;50.786;7.840;2022-08-01T01:20:37;2.87;;;1.60;;
21806;SDS011;11065;50.786;7.840;2022-08-01T01:23:10;4.23;;;2.00;;
21806;SDS011;11065;50.786;7.840;2022-08-01T01:26:11;2.33;;;1.53;;
21806;SDS011;11065;50.786;7.840;2022-08-01T01:29:13;3.73;;;1.87;;
21806;SDS011;11065;50.786;7.840;2022-08-01T01:34:56;2.70;;;1.63;;
21806;SDS011;11065;50.786;7.840;2022-08-01T01:37:24;3.33;;;1.70;;
21806;SDS011;11065;50.786;7.840;2022-08-01T01:39:53;2.10;;;1.33;;
21806;SDS011;11065;50.786;7.840;2022-08-01T01:42:21;3.23;;;1.47;;
21806;SDS011;11065;50.786;7.840;2022-08-01T01:44:51;2.20;;;1.27;;
21806;SDS011;11065;50.786;7.840;2022-08-01T01:47:20;2.60;;;1.63;;
21806;SDS011;11065;50.786;7.840;2022-08-01T01:49:49;2.60;;;1.53;;
21806;SDS011;11065;50.786;7.840;2022-08-01T01:52:18;1.90;;;1.20;;
21806;SDS011;11065;50.786;7.840;2022-08-01T01:54:49;2.43;;;1.30;;
21806;SDS011;11065;50.786;7.840;2022-08-01T01:57:18;2.30;;;1.10;;
21806;SDS011;11065;50.786;7.840;2022-08-01T01:59:47;3.23;;;1.60;;
21806;SDS011;11065;50.786;7.840;2022-08-01T02:02:16;3.23;;;1.33;;
21806;SDS011;11065;50.786;7.840;2022-08-01T02:04:45;1.97;;;1.40;;
21806;SDS011;11065;50.786;7.840;2022-08-01T02:07:14;4.03;;;1.37;;
21806;SDS011;11065;50.786;7.840;2022-08-01T02:09:45;3.33;;;1.70;;
21806;SDS011;11065;50.786;7.840;2022-08-01T02:12:13;2.40;;;1.60;;
21806;SDS011;11065;50.786;7.840;2022-08-01T02:14:43;3.40;;;1.70;;
21806;SDS011;11065;50.786;7.840;2022-08-01T02:17:12;3.20;;;1.50;;
21806;SDS011;11065;50.786;7.840;2022-08-01T02:19:43;2.23;;;1.50;;
21806;SDS011;11065;50.786;7.840;2022-08-01T02:22:11;3.40;;;1.70;;
21806;SDS011;11065;50.786;7.840;2022-08-01T02:24:50;3.47;;;1.77;;
21806;SDS011;11065;50.786;7.840;2022-08-01T02:27:25;3.40;;;1.90;;
21806;SDS011;11065;50.786;7.840;2022-08-01T02:29:59;3.70;;;1.70;;
21806;SDS011;11065;50.786;7.840;2022-08-01T02:32:34;2.90;;;2.00;;
21806;SDS011;11065;50.786;7.840;2022-08-01T02:35:07;4.40;;;1.63;;
21806;SDS011;11065;50.786;7.840;2022-08-01T02:37:39;2.10;;;1.80;;
21806;SDS011;11065;50.786;7.840;2022-08-01T02:40:12;2.90;;;1.90;;
21806;SDS011;11065;50.786;7.840;2022-08-01T02:42:43;2.97;;;2.13;;
21806;SDS011;11065;50.786;7.840;2022-08-01T02:45:57;2.57;;;2.10;;
21806;SDS011;11065;50.786;7.840;2022-08-01T02:48:27;2.70;;;2.03;;
21806;SDS011;11065;50.786;7.840;2022-08-01T02:50:57;3.40;;;2.17;;
21806;SDS011;11065;50.786;7.840;2022-08-01T02:53:31;2.37;;;1.90;;
21806;SDS011;11065;50.786;7.840;2022-08-01T02:56:10;3.37;;;2.10;;
21806;SDS011;11065;50.786;7.840;2022-08-01T02:58:39;3.50;;;2.40;;
21806;SDS011;11065;50.786;7.840;2022-08-01T03:01:07;3.27;;;2.03;;
21806;SDS011;11065;50.786;7.840;2022-08-01T03:03:37;3.03;;;2.53;;
21806;SDS011;11065;50.786;7.840;2022-08-01T03:06:04;6.13;;;3.43;;
21806;SDS011;11065;50.786;7.840;2022-08-01T03:08:32;5.50;;;3.60;;
21806;SDS011;11065;50.786;7.840;2022-08-01T03:11:00;5.10;;;4.13;;
21806;SDS011;11065;50.786;7.840;2022-08-01T03:13:28;5.50;;;3.87;;
21806;SDS011;11065;50.786;7.840;2022-08-01T03:15:57;5.30;;;4.10;;
21806;SDS011;11065;50.786;7.840;2022-08-01T03:18:26;5.03;;;4.10;;
21806;SDS011;11065;50.786;7.840;2022-08-01T03:20:54;5.10;;;4.00;;
21806;SDS011;11065;50.786;7.840;2022-08-01T03:23:23;6.33;;;4.67;;
21806;SDS011;11065;50.786;7.840;2022-08-01T03:26:03;5.60;;;4.53;;
21806;SDS011;11065;50.786;7.840;2022-08-01T03:28:32;6.10;;;4.57;;
21806;SDS011;11065;50.786;7.840;2022-08-01T03:30:59;5.23;;;4.53;;
21806;SDS011;11065;50.786;7.840;2022-08-01T03:33:28;5.23;;;4.73;;
21806;SDS011;11065;50.786;7.840;2022-08-01T03:35:55;6.33;;;4.60;;
21806;SDS011;11065;50.786;7.840;2022-08-01T03:38:26;8.60;;;4.87;;
21806;SDS011;11065;50.786;7.840;2022-08-01T03:40:59;5.63;;;4.60;;
21806;SDS011;11065;50.786;7.840;2022-08-01T03:43:32;7.83;;;5.77;;
21806;SDS011;11065;50.786;7.840;2022-08-01T03:46:04;6.10;;;5.50;;
21806;SDS011;11065;50.786;7.840;2022-08-01T03:48:35;6.17;;;5.17;;
21806;SDS011;11065;50.786;7.840;2022-08-01T03:51:05;10.03;;;6.70;;
21806;SDS011;11065;50.786;7.840;2022-08-01T03:53:34;6.03;;;5.43;;
21806;SDS011;11065;50.786;7.840;2022-08-01T03:56:07;8.33;;;5.87;;
21806;SDS011;11065;50.786;7.840;2022-08-01T03:58:38;7.77;;;6.33;;
21806;SDS011;11065;50.786;7.840;2022-08-01T04:01:06;6.67;;;5.97;;
21806;SDS011;11065;50.786;7.840;2022-08-01T04:03:42;7.83;;;5.97;;
21806;SDS011;11065;50.786;7.840;2022-08-01T04:06:10;8.07;;;6.40;;
21806;SDS011;11065;50.786;7.840;2022-08-01T04:08:37;7.17;;;6.23;;
21806;SDS011;11065;50.786;7.840;2022-08-01T04:11:05;8.90;;;6.50;;
21806;SDS011;11065;50.786;7.840;2022-08-01T04:13:33;9.10;;;6.50;;
21806;SDS011;11065;50.786;7.840;2022-08-01T04:16:02;7.33;;;6.13;;
21806;SDS011;11065;50.786;7.840;2022-08-01T04:18:29;6.80;;;6.07;;
21806;SDS011;11065;50.786;7.840;2022-08-01T04:20:56;7.47;;;6.23;;
21806;SDS011;11065;50.786;7.840;2022-08-01T04:23:24;8.33;;;6.67;;
21806;SDS011;11065;50.786;7.840;2022-08-01T04:25:53;7.47;;;6.37;;
21806;SDS011;11065;50.786;7.840;2022-08-01T04:28:23;7.07;;;6.37;;
21806;SDS011;11065;50.786;7.840;2022-08-01T04:30:52;7.23;;;6.53;;
21806;SDS011;11065;50.786;7.840;2022-08-01T04:33:28;7.53;;;6.83;;
21806;SDS011;11065;50.786;7.840;2022-08-01T04:35:57;9.33;;;6.97;;
21806;SDS011;11065;50.786;7.840;2022-08-01T04:38:30;10.53;;;7.27;;
21806;SDS011;11065;50.786;7.840;2022-08-01T04:41:00;7.93;;;7.10;;
21806;SDS011;11065;50.786;7.840;2022-08-01T04:43:35;7.70;;;6.90;;
21806;SDS011;11065;50.786;7.840;2022-08-01T04:46:09;8.47;;;7.60;;
21806;SDS011;11065;50.786;7.840;2022-08-01T04:48:38;8.43;;;7.03;;
21806;SDS011;11065;50.786;7.840;2022-08-01T04:51:13;8.17;;;7.23;;
21806;SDS011;11065;50.786;7.840;2022-08-01T04:53:44;9.00;;;8.10;;
21806;SDS011;11065;50.786;7.840;2022-08-01T04:56:14;9.10;;;7.50;;
21806;SDS011;11065;50.786;7.840;2022-08-01T04:58:41;8.40;;;7.50;;
21806;SDS011;11065;50.786;7.840;2022-08-01T05:01:08;10.83;;;7.67;;
21806;SDS011;11065;50.786;7.840;2022-08-01T05:03:37;9.93;;;8.20;;
21806;SDS011;11065;50.786;7.840;2022-08-01T05:06:04;9.07;;;7.43;;
21806;SDS011;11065;50.786;7.840;2022-08-01T05:08:31;10.03;;;8.37;;
21806;SDS011;11065;50.786;7.840;2022-08-01T05:10:58;9.57;;;7.47;;
21806;SDS011;11065;50.786;7.840;2022-08-01T05:13:25;10.73;;;8.47;;
21806;SDS011;11065;50.786;7.840;2022-08-01T05:15:52;9.37;;;7.77;;
21806;SDS011;11065;50.786;7.840;2022-08-01T05:18:19;11.50;;;8.70;;
21806;SDS011;11065;50.786;7.840;2022-08-01T05:20:53;8.70;;;7.70;;
21806;SDS011;11065;50.786;7.840;2022-08-01T05:23:20;10.63;;;8.73;;
21806;SDS011;11065;50.786;7.840;2022-08-01T05:26:07;10.43;;;8.40;;
21806;SDS011;11065;50.786;7.840;2022-08-01T05:28:35;9.50;;;8.60;;
21806;SDS011;11065;50.786;7.840;2022-08-01T05:31:02;13.10;;;9.13;;
21806;SDS011;11065;50.786;7.840;2022-08-01T05:33:29;9.50;;;8.50;;
21806;SDS011;11065;50.786;7.840;2022-08-01T05:35:56;10.40;;;9.30;;
21806;SDS011;11065;50.786;7.840;2022-08-01T05:38:23;13.97;;;8.97;;
21806;SDS011;11065;50.786;7.840;2022-08-01T05:40:50;10.30;;;9.23;;
21806;SDS011;11065;50.786;7.840;2022-08-01T05:43:17;11.80;;;9.20;;
21806;SDS011;11065;50.786;7.840;2022-08-01T05:45:44;9.53;;;8.57;;
21806;SDS011;11065;50.786;7.840;2022-08-01T05:48:12;10.20;;;9.13;;
21806;SDS011;11065;50.786;7.840;2022-08-01T05:50:39;11.73;;;9.20;;
21806;SDS011;11065;50.786;7.840;2022-08-01T05:53:06;10.50;;;9.07;;
21806;SDS011;11065;50.786;7.840;2022-08-01T05:55:34;10.93;;;9.00;;
21806;SDS011;11065;50.786;7.840;2022-08-01T05:58:01;11.63;;;9.00;;
21806;SDS011;11065;50.786;7.840;2022-08-01T06:00:28;9.83;;;8.37;;
21806;SDS011;11065;50.786;7.840;2022-08-01T06:02:55;10.77;;;9.00;;
21806;SDS011;11065;50.786;7.840;2022-08-01T06:05:22;12.60;;;9.67;;
21806;SDS011;11065;50.786;7.840;2022-08-01T06:07:49;12.37;;;10.27;;
21806;SDS011;11065;50.786;7.840;2022-08-01T06:10:16;13.53;;;10.30;;
21806;SDS011;11065;50.786;7.840;2022-08-01T06:12:43;10.40;;;9.40;;
21806;SDS011;11065;50.786;7.840;2022-08-01T06:15:09;11.77;;;10.57;;
21806;SDS011;11065;50.786;7.840;2022-08-01T06:17:37;10.20;;;9.13;;
21806;SDS011;11065;50.786;7.840;2022-08-01T06:20:05;11.17;;;9.10;;
21806;SDS011;11065;50.786;7.840;2022-08-01T06:22:33;11.10;;;10.00;;
21806;SDS011;11065;50.786;7.840;2022-08-01T06:25:00;10.37;;;9.23;;
21806;SDS011;11065;50.786;7.840;2022-08-01T06:27:27;10.77;;;9.67;;
21806;SDS011;11065;50.786;7.840;2022-08-01T06:29:54;11.63;;;9.53;;
21806;SDS011;11065;50.786;7.840;2022-08-01T06:32:21;10.10;;;9.10;;
21806;SDS011;11065;50.786;7.840;2022-08-01T06:34:53;10.03;;;9.00;;
21806;SDS011;11065;50.786;7.840;2022-08-01T06:37:22;11.13;;;10.03;;
21806;SDS011;11065;50.786;7.840;2022-08-01T06:39:49;11.73;;;9.57;;
21806;SDS011;11065;50.786;7.840;2022-08-01T06:42:16;10.03;;;9.07;;
21806;SDS011;11065;50.786;7.840;2022-08-01T06:44:44;11.40;;;8.40;;
21806;SDS011;11065;50.786;7.840;2022-08-01T06:47:10;9.50;;;8.60;;
21806;SDS011;11065;50.786;7.840;2022-08-01T06:49:37;9.87;;;8.77;;
21806;SDS011;11065;50.786;7.840;2022-08-01T06:52:04;9.50;;;8.60;;
21806;SDS011;11065;50.786;7.840;2022-08-01T06:54:31;9.33;;;8.40;;
21806;SDS011;11065;50.786;7.840;2022-08-01T06:56:58;10.37;;;8.43;;
21806;SDS011;11065;50.786;7.840;2022-08-01T06:59:25;8.17;;;7.37;;
21806;SDS011;11065;50.786;7.840;2022-08-01T07:02:15;9.77;;;8.63;;
21806;SDS011;11065;50.786;7.840;2022-08-01T07:04:42;8.77;;;7.87;;
21806;SDS011;11065;50.786;7.840;2022-08-01T07:07:09;9.60;;;7.90;;
21806;SDS011;11065;50.786;7.840;2022-08-01T07:09:35;8.33;;;7.53;;
21806;SDS011;11065;50.786;7.840;2022-08-01T07:12:03;9.30;;;8.40;;
21806;SDS011;11065;50.786;7.840;2022-08-01T07:14:30;8.60;;;7.63;;
21806;SDS011;11065;50.786;7.840;2022-08-01T07:16:57;8.77;;;7.93;;
21806;SDS011;11065;50.786;7.840;2022-08-01T07:19:24;8.33;;;7.53;;
21806;SDS011;11065;50.786;7.840;2022-08-01T07:21:51;8.43;;;7.63;;
21806;SDS011;11065;50.786;7.840;2022-08-01T07:24:19;8.40;;;7.17;;
21806;SDS011;11065;50.786;7.840;2022-08-01T07:26:48;9.43;;;7.83;;
21806;SDS011;11065;50.786;7.840;2022-08-01T07:29:23;8.70;;;7.00;;
21806;SDS011;11065;50.786;7.840;2022-08-01T07:31:51;7.60;;;6.80;;
21806;SDS011;11065;50.786;7.840;2022-08-01T07:34:19;8.50;;;7.33;;
21806;SDS011;11065;50.786;7.840;2022-08-01T07:36:47;8.23;;;7.40;;
21806;SDS011;11065;50.786;7.840;2022-08-01T07:39:14;8.20;;;7.37;;
21806;SDS011;11065;50.786;7.840;2022-08-01T07:41:40;9.10;;;7.03;;
21806;SDS011;11065;50.786;7.840;2022-08-01T07:44:27;9.43;;;7.00;;
21806;SDS011;11065;50.786;7.840;2022-08-01T07:46:54;7.87;;;7.07;;
21806;SDS011;11065;50.786;7.840;2022-08-01T07:49:21;10.07;;;7.27;;
21806;SDS011;11065;50.786;7.840;2022-08-01T07:51:48;8.00;;;7.07;;
21806;SDS011;11065;50.786;7.840;2022-08-01T07:54:30;7.60;;;6.90;;
21806;SDS011;11065;50.786;7.840;2022-08-01T07:57:00;8.53;;;6.60;;
21806;SDS011;11065;50.786;7.840;2022-08-01T07:59:28;7.63;;;6.43;;
21806;SDS011;11065;50.786;7.840;2022-08-01T08:01:55;7.27;;;6.50;;
21806;SDS011;11065;50.786;7.840;2022-08-01T08:04:22;6.72;;;6.07;;
21806;SDS011;11065;50.786;7.840;2022-08-01T08:06:49;8.43;;;6.50;;
21806;SDS011;11065;50.786;7.840;2022-08-01T08:09:17;7.53;;;5.70;;
21806;SDS011;11065;50.786;7.840;2022-08-01T08:11:44;6.95;;;6.25;;
21806;SDS011;11065;50.786;7.840;2022-08-01T08:14:13;6.25;;;5.63;;
21806;SDS011;11065;50.786;7.840;2022-08-01T08:16:41;7.35;;;6.28;;
21806;SDS011;11065;50.786;7.840;2022-08-01T08:19:09;6.97;;;5.55;;
21806;SDS011;11065;50.786;7.840;2022-08-01T08:21:36;7.15;;;5.40;;
21806;SDS011;11065;50.786;7.840;2022-08-01T08:24:04;6.93;;;6.32;;
21806;SDS011;11065;50.786;7.840;2022-08-01T08:26:56;6.40;;;5.80;;
21806;SDS011;11065;50.786;7.840;2022-08-01T08:29:25;6.68;;;5.47;;
21806;SDS011;11065;50.786;7.840;2022-08-01T08:31:53;8.20;;;5.93;;
21806;SDS011;11065;50.786;7.840;2022-08-01T08:34:29;6.03;;;5.00;;
21806;SDS011;11065;50.786;7.840;2022-08-01T08:36:56;6.03;;;5.40;;
21806;SDS011;11065;50.786;7.840;2022-08-01T08:39:24;5.47;;;4.90;;
21806;SDS011;11065;50.786;7.840;2022-08-01T08:41:51;5.43;;;4.93;;
21806;SDS011;11065;50.786;7.840;2022-08-01T08:44:18;5.65;;;5.13;;
21806;SDS011;11065;50.786;7.840;2022-08-01T08:46:50;5.30;;;4.80;;
21806;SDS011;11065;50.786;7.840;2022-08-01T08:49:20;6.30;;;5.20;;
21806;SDS011;11065;50.786;7.840;2022-08-01T08:51:49;5.47;;;4.95;;
21806;SDS011;11065;50.786;7.840;2022-08-01T08:54:18;6.32;;;4.85;;
21806;SDS011;11065;50.786;7.840;2022-08-01T08:56:56;5.50;;;4.80;;
21806;SDS011;11065;50.786;7.840;2022-08-01T08:59:24;4.93;;;4.43;;
21806;SDS011;11065;50.786;7.840;2022-08-01T09:01:52;5.88;;;4.60;;
21806;SDS011;11065;50.786;7.840;2022-08-01T09:04:20;6.72;;;4.07;;
21806;SDS011;11065;50.786;7.840;2022-08-01T09:06:51;5.32;;;4.28;;
21806;SDS011;11065;50.786;7.840;2022-08-01T09:09:19;4.45;;;3.85;;
21806;SDS011;11065;50.786;7.840;2022-08-01T09:11:46;4.72;;;4.05;;
21806;SDS011;11065;50.786;7.840;2022-08-01T09:14:23;4.55;;;3.75;;
21806;SDS011;11065;50.786;7.840;2022-08-01T09:17:03;4.63;;;4.18;;
21806;SDS011;11065;50.786;7.840;2022-08-01T09:19:36;5.25;;;4.70;;
21806;SDS011;11065;50.786;7.840;2022-08-01T09:22:09;5.30;;;4.35;;
21806;SDS011;11065;50.786;7.840;2022-08-01T09:24:38;4.45;;;3.60;;
21806;SDS011;11065;50.786;7.840;2022-08-01T09:27:17;5.60;;;3.70;;
21806;SDS011;11065;50.786;7.840;2022-08-01T09:29:48;3.83;;;3.15;;
21806;SDS011;11065;50.786;7.840;2022-08-01T09:32:30;3.67;;;3.38;;
21806;SDS011;11065;50.786;7.840;2022-08-01T09:40:56;3.42;;;2.90;;
21806;SDS011;11065;50.786;7.840;2022-08-01T09:43:25;4.35;;;3.35;;
21806;SDS011;11065;50.786;7.840;2022-08-01T09:45:54;3.20;;;2.90;;
21806;SDS011;11065;50.786;7.840;2022-08-01T09:48:24;3.20;;;2.90;;
21806;SDS011;11065;50.786;7.840;2022-08-01T09:50:55;3.25;;;2.40;;
21806;SDS011;11065;50.786;7.840;2022-08-01T09:53:42;3.35;;;2.85;;
21806;SDS011;11065;50.786;7.840;2022-08-01T09:56:17;3.65;;;2.88;;
21806;SDS011;11065;50.786;7.840;2022-08-01T09:58:48;2.70;;;2.45;;
21806;SDS011;11065;50.786;7.840;2022-08-01T10:01:26;3.58;;;2.45;;
21806;SDS011;11065;50.786;7.840;2022-08-01T10:04:07;2.65;;;2.45;;
21806;SDS011;11065;50.786;7.840;2022-08-01T10:06:48;2.80;;;2.47;;
21806;SDS011;11065;50.786;7.840;2022-08-01T10:09:29;3.50;;;2.88;;
21806;SDS011;11065;50.786;7.840;2022-08-01T10:12:06;3.90;;;3.25;;
21806;SDS011;11065;50.786;7.840;2022-08-01T10:14:42;3.70;;;3.08;;
21806;SDS011;11065;50.786;7.840;2022-08-01T10:17:16;3.38;;;2.72;;
21806;SDS011;11065;50.786;7.840;2022-08-01T10:19:45;3.28;;;2.95;;
21806;SDS011;11065;50.786;7.840;2022-08-01T10:22:13;3.35;;;2.72;;
21806;SDS011;11065;50.786;7.840;2022-08-01T10:24:44;3.78;;;3.10;;
21806;SDS011;11065;50.786;7.840;2022-08-01T10:27:14;3.85;;;3.53;;
21806;SDS011;11065;50.786;7.840;2022-08-01T10:29:59;4.13;;;3.72;;
21806;SDS011;11065;50.786;7.840;2022-08-01T10:32:49;4.20;;;3.33;;
21806;SDS011;11065;50.786;7.840;2022-08-01T10:35:20;4.00;;;3.60;;
21806;SDS011;11065;50.786;7.840;2022-08-01T10:38:07;3.45;;;3.15;;
21806;SDS011;11065;50.786;7.840;2022-08-01T10:40:39;3.17;;;2.80;;
21806;SDS011;11065;50.786;7.840;2022-08-01T10:43:09;3.70;;;3.30;;
21806;SDS011;11065;50.786;7.840;2022-08-01T10:45:37;3.28;;;2.97;;
21806;SDS011;11065;50.786;7.840;2022-08-01T10:53:10;3.20;;;2.90;;
21806;SDS011;11065;50.786;7.840;2022-08-01T10:58:28;3.05;;;2.70;;
21806;SDS011;11065;50.786;7.840;2022-08-01T11:01:20;3.30;;;3.00;;
21806;SDS011;11065;50.786;7.840;2022-08-01T11:06:52;3.17;;;2.85;;
21806;SDS011;11065;50.786;7.840;2022-08-01T11:09:24;5.28;;;3.20;;
21806;SDS011;11065;50.786;7.840;2022-08-01T11:12:07;3.40;;;3.10;;
21806;SDS011;11065;50.786;7.840;2022-08-01T11:17:32;3.22;;;2.42;;
21806;SDS011;11065;50.786;7.840;2022-08-01T11:20:09;2.83;;;2.55;;
21806;SDS011;11065;50.786;7.840;2022-08-01T11:28:32;2.63;;;2.42;;
21806;SDS011;11065;50.786;7.840;2022-08-01T11:38:41;3.63;;;2.58;;
21806;SDS011;11065;50.786;7.840;2022-08-01T11:44:05;4.50;;;2.67;;
21806;SDS011;11065;50.786;7.840;2022-08-01T11:50:04;3.10;;;2.78;;
21806;SDS011;11065;50.786;7.840;2022-08-01T11:54:50;2.92;;;2.63;;
21806;SDS011;11065;50.786;7.840;2022-08-01T11:57:28;3.05;;;2.70;;
21806;SDS011;11065;50.786;7.840;2022-08-01T12:00:14;3.70;;;2.58;;
21806;SDS011;11065;50.786;7.840;2022-08-01T12:02:45;3.67;;;2.67;;
21806;SDS011;11065;50.786;7.840;2022-08-01T12:05:14;2.70;;;2.40;;
21806;SDS011;11065;50.786;7.840;2022-08-01T12:07:44;2.80;;;2.30;;
21806;SDS011;11065;50.786;7.840;2022-08-01T12:10:16;3.83;;;2.65;;
21806;SDS011;11065;50.786;7.840;2022-08-01T12:12:46;3.40;;;2.40;;
21806;SDS011;11065;50.786;7.840;2022-08-01T12:15:15;2.78;;;2.53;;
21806;SDS011;11065;50.786;7.840;2022-08-01T12:17:46;3.05;;;2.67;;
21806;SDS011;11065;50.786;7.840;2022-08-01T12:20:34;3.42;;;2.70;;
21806;SDS011;11065;50.786;7.840;2022-08-01T12:23:06;3.28;;;2.20;;
21806;SDS011;11065;50.786;7.840;2022-08-01T12:25:35;2.83;;;2.63;;
21806;SDS011;11065;50.786;7.840;2022-08-01T12:28:04;3.42;;;2.58;;
21806;SDS011;11065;50.786;7.840;2022-08-01T12:30:32;3.00;;;2.70;;
21806;SDS011;11065;50.786;7.840;2022-08-01T12:33:03;3.92;;;3.20;;
21806;SDS011;11065;50.786;7.840;2022-08-01T12:35:31;3.63;;;2.83;;
21806;SDS011;11065;50.786;7.840;2022-08-01T12:38:00;3.40;;;3.10;;
21806;SDS011;11065;50.786;7.840;2022-08-01T12:40:34;3.15;;;2.85;;
21806;SDS011;11065;50.786;7.840;2022-08-01T12:43:09;3.45;;;3.15;;
21806;SDS011;11065;50.786;7.840;2022-08-01T12:45:54;3.80;;;3.13;;
21806;SDS011;11065;50.786;7.840;2022-08-01T12:48:24;3.20;;;2.90;;
21806;SDS011;11065;50.786;7.840;2022-08-01T12:50:51;3.88;;;2.88;;
21806;SDS011;11065;50.786;7.840;2022-08-01T12:53:20;2.90;;;2.55;;
21806;SDS011;11065;50.786;7.840;2022-08-01T12:55:48;2.88;;;2.50;;
21806;SDS011;11065;50.786;7.840;2022-08-01T12:58:32;3.58;;;2.40;;
21806;SDS011;11065;50.786;7.840;2022-08-01T13:01:05;5.32;;;2.85;;
21806;SDS011;11065;50.786;7.840;2022-08-01T13:03:37;2.88;;;2.40;;
21806;SDS011;11065;50.786;7.840;2022-08-01T13:06:11;2.53;;;2.33;;
21806;SDS011;11065;50.786;7.840;2022-08-01T13:08:40;4.45;;;2.17;;
21806;SDS011;11065;50.786;7.840;2022-08-01T13:11:08;2.95;;;2.22;;
21806;SDS011;11065;50.786;7.840;2022-08-01T13:16:14;2.47;;;2.20;;
21806;SDS011;11065;50.786;7.840;2022-08-01T13:19:03;4.32;;;2.40;;
21806;SDS011;11065;50.786;7.840;2022-08-01T13:21:32;2.70;;;1.95;;
21806;SDS011;11065;50.786;7.840;2022-08-01T13:24:37;3.67;;;2.30;;
21806;SDS011;11065;50.786;7.840;2022-08-01T13:27:03;3.30;;;2.22;;
21806;SDS011;11065;50.786;7.840;2022-08-01T13:29:37;3.15;;;2.40;;
21806;SDS011;11065;50.786;7.840;2022-08-01T13:32:13;2.60;;;2.22;;
21806;SDS011;11065;50.786;7.840;2022-08-01T13:35:08;2.70;;;2.30;;
21806;SDS011;11065;50.786;7.840;2022-08-01T13:37:36;3.45;;;2.70;;
21806;SDS011;11065;50.786;7.840;2022-08-01T13:40:08;3.55;;;2.30;;
21806;SDS011;11065;50.786;7.840;2022-08-01T13:42:36;2.63;;;1.98;;
21806;SDS011;11065;50.786;7.840;2022-08-01T13:45:04;2.20;;;1.90;;
21806;SDS011;11065;50.786;7.840;2022-08-01T13:47:43;2.53;;;2.30;;
21806;SDS011;11065;50.786;7.840;2022-08-01T13:50:30;2.00;;;1.80;;
21806;SDS011;11065;50.786;7.840;2022-08-01T13:52:57;2.50;;;2.08;;
21806;SDS011;11065;50.786;7.840;2022-08-01T13:55:24;2.63;;;2.30;;
21806;SDS011;11065;50.786;7.840;2022-08-01T13:57:55;2.50;;;2.20;;
21806;SDS011;11065;50.786;7.840;2022-08-01T14:00:22;2.30;;;1.88;;
21806;SDS011;11065;50.786;7.840;2022-08-01T14:02:49;2.75;;;1.77;;
21806;SDS011;11065;50.786;7.840;2022-08-01T14:05:16;2.45;;;1.65;;
21806;SDS011;11065;50.786;7.840;2022-08-01T14:07:42;2.72;;;1.85;;
21806;SDS011;11065;50.786;7.840;2022-08-01T14:10:14;2.38;;;1.75;;
21806;SDS011;11065;50.786;7.840;2022-08-01T14:12:46;2.70;;;1.77;;
21806;SDS011;11065;50.786;7.840;2022-08-01T14:15:14;4.13;;;1.67;;
21806;SDS011;11065;50.786;7.840;2022-08-01T14:18:00;2.60;;;1.67;;
21806;SDS011;11065;50.786;7.840;2022-08-01T14:20:27;2.42;;;1.50;;
21806;SDS011;11065;50.786;7.840;2022-08-01T14:22:54;1.77;;;1.60;;
21806;SDS011;11065;50.786;7.840;2022-08-01T14:25:21;3.30;;;2.00;;
21806;SDS011;11065;50.786;7.840;2022-08-01T14:28:08;3.53;;;1.95;;
21806;SDS011;11065;50.786;7.840;2022-08-01T14:30:35;1.92;;;1.63;;
21806;SDS011;11065;50.786;7.840;2022-08-01T14:33:02;2.80;;;1.70;;
21806;SDS011;11065;50.786;7.840;2022-08-01T14:35:29;5.30;;;1.67;;
21806;SDS011;11065;50.786;7.840;2022-08-01T14:38:16;2.38;;;1.88;;
21806;SDS011;11065;50.786;7.840;2022-08-01T14:40:57;2.72;;;1.48;;
21806;SDS011;11065;50.786;7.840;2022-08-01T14:43:24;2.80;;;1.45;;
21806;SDS011;11065;50.786;7.840;2022-08-01T14:45:58;2.50;;;1.48;;
21806;SDS011;11065;50.786;7.840;2022-08-01T14:48:26;1.70;;;1.38;;
21806;SDS011;11065;50.786;7.840;2022-08-01T14:50:53;1.90;;;1.20;;
21806;SDS011;11065;50.786;7.840;2022-08-01T14:53:19;3.83;;;1.50;;
21806;SDS011;11065;50.786;7.840;2022-08-01T14:55:46;2.20;;;1.40;;
21806;SDS011;11065;50.786;7.840;2022-08-01T14:58:13;1.65;;;1.30;;
21806;SDS011;11065;50.786;7.840;2022-08-01T15:00:41;1.80;;;1.15;;
21806;SDS011;11065;50.786;7.840;2022-08-01T15:03:08;2.10;;;1.42;;
21806;SDS011;11065;50.786;7.840;2022-08-01T15:05:35;1.73;;;1.27;;
21806;SDS011;11065;50.786;7.840;2022-08-01T15:08:03;4.28;;;1.65;;
21806;SDS011;11065;50.786;7.840;2022-08-01T15:10:31;2.13;;;1.50;;
21806;SDS011;11065;50.786;7.840;2022-08-01T15:12:58;1.90;;;1.42;;
21806;SDS011;11065;50.786;7.840;2022-08-01T15:15:26;2.17;;;1.58;;
21806;SDS011;11065;50.786;7.840;2022-08-01T15:17:53;2.50;;;1.60;;
21806;SDS011;11065;50.786;7.840;2022-08-01T15:20:20;2.38;;;1.73;;
21806;SDS011;11065;50.786;7.840;2022-08-01T15:22:47;2.53;;;1.30;;
21806;SDS011;11065;50.786;7.840;2022-08-01T15:25:14;3.28;;;1.40;;
21806;SDS011;11065;50.786;7.840;2022-08-01T15:27:41;3.88;;;1.60;;
21806;SDS011;11065;50.786;7.840;2022-08-01T15:30:08;2.05;;;1.48;;
21806;SDS011;11065;50.786;7.840;2022-08-01T15:32:36;3.05;;;1.20;;
21806;SDS011;11065;50.786;7.840;2022-08-01T15:35:03;1.77;;;1.20;;
21806;SDS011;11065;50.786;7.840;2022-08-01T15:37:31;1.70;;;1.20;;
21806;SDS011;11065;50.786;7.840;2022-08-01T15:39:57;2.78;;;1.10;;
21806;SDS011;11065;50.786;7.840;2022-08-01T15:42:24;1.95;;;1.20;;
21806;SDS011;11065;50.786;7.840;2022-08-01T15:44:52;1.77;;;1.30;;
21806;SDS011;11065;50.786;7.840;2022-08-01T15:47:19;1.90;;;1.25;;
21806;SDS011;11065;50.786;7.840;2022-08-01T15:49:50;1.45;;;1.20;;
21806;SDS011;11065;50.786;7.840;2022-08-01T15:52:18;2.65;;;1.17;;
21806;SDS011;11065;50.786;7.840;2022-08-01T15:54:48;1.80;;;1.30;;
21806;SDS011;11065;50.786;7.840;2022-08-01T15:57:15;2.08;;;1.20;;
21806;SDS011;11065;50.786;7.840;2022-08-01T15:59:42;1.98;;;1.13;;